Welcome to our new website - Welkom op onze vernieuwde website - Bienvenue sur notre nouveau site web - Willkommen auf unserer neuen Website
Check our progress frequently. Prüfen Sie unsere Fortschritte regelmäßig. Consultez notre progression fréquemment. Komt u straks nog eens terug

Bezoek ook deze websites:

Template documentation
and downloads

And another site



We konden geen weer-waarchuwingen ophalen. Ga rechtstreeks naar de Meteoalarm site : www.meteoalarm.eu en controleer daar .

METAR rapporten vliegvelden

   
EHDL - Deelen Rnlafb, Netherlands
Afstand tot: ZW 55 km
Gewijzigd: 08-08-2022 02:25
Grotendeels bewolkt  
Grotendeels bewolkt  
   Wind: varieert 3.7 km/h
Wind: varieert 3.7 km/h
Temperatuur: 13°C
Dauwpunt: 12°C
Vochtigheid: 94%
Barometer: 1025 hPa
Bewolking: Grotendeels bewolkt
Zicht: meer dan 10 km
Bewolking: Grotendeels bewolkt 34000 ft
EHDL 080025Z AUTO VRB02KT 9999 BKN340 13/12 Q1025 BLU
EHLE - Lelystad, Netherlands
Afstand tot: W 64 km
Gewijzigd: 08-08-2022 02:25
Gedeeltelijk bewolkt  
Gedeeltelijk bewolkt  
   Wind: varieert 1.9 km/h
Wind: varieert 1.9 km/h
Temperatuur: 12°C
Dauwpunt: 11°C
Vochtigheid: 94%
Barometer: 1025 hPa
Bewolking: Gedeeltelijk bewolkt
Zicht: meer dan 10 km
Bewolking: Gedeeltelijk bewolkt
EHLE 080025Z AUTO VRB01KT 9999 NSC 12/11 Q1025
ETWM - Meppen, Germany
Afstand tot: ONO 69 km
Gewijzigd: 08-08-2022 02:20
  
  
   Wind: Oosten 1.9 km/h
Wind: Oosten 1.9 km/h
Temperatuur: 12°C
Dauwpunt: 11°C
Vochtigheid: 94%
Barometer: 1025 hPa
ETWM 080020Z AUTO 08001KT //// // ////// 12/11 Q1025 ///
EHGG - Groningen/Eelde, Netherlands
Afstand tot: N 79 km
Gewijzigd: 08-08-2022 02:25
Gedeeltelijk bewolkt  
Gedeeltelijk bewolkt  
   Wind: ZW 3.7 km/h
Wind: ZW 3.7 km/h
Temperatuur: 10°C
Dauwpunt: 9°C
Vochtigheid: 94%
Barometer: 1025 hPa
Bewolking: Gedeeltelijk bewolkt
Zicht: meer dan 10 km
Bewolking: Gedeeltelijk bewolkt
EHGG 080025Z AUTO 22002KT 9999 NSC 10/09 Q1025
EDDG - Muenster/Osnabru, Germany
Afstand tot: OZO 90 km
Gewijzigd: 08-08-2022 02:20
Helder  
Helder  
   Wind: varieert 1.9 km/h
Wind: varieert 1.9 km/h
Temperatuur: 13°C
Dauwpunt: 10°C
Vochtigheid: 82%
Barometer: 1024 hPa
Zicht: meer dan 10 km
Bewolking: Helder
EDDG 080020Z VRB01KT CAVOK 13/10 Q1024 NOSIG
EDLV - Niederrhein, Germany
Afstand tot: ZZW 92 km
Gewijzigd: 07-08-2022 23:50
Verouderd
Helder  
Helder  
   Wind: varieert 1.9 km/h
Wind: varieert 1.9 km/h
Temperatuur: 18°C
Dauwpunt: 10°C
Vochtigheid: 60%
Barometer: 1024 hPa
Zicht: meer dan 10 km
Bewolking: Helder
EDLV 072150Z VRB01KT CAVOK 18/10 Q1024

Script ontwikkeld door  Saratoga-weather.org Aangepast voor de template door  Weerstation Leuven

U vindt ons ook hier:

Het Weer Aktueel

European Weather Network

Weather Underground

Benelux Weer Netwerk

Apparatuur in gebruik:

Weerstation
Davis VP2

Weerprogramma
Meteobridge

Weercomputer
Meteobridge Pro+

Webleverancier
vip.nl

Davis VP2

Meteobridge

Meteobridge Pro+

vip.nl